sensor_id;sensor_type;location;lat;lon;timestamp;pressure;altitude;pressure_sealevel;temperature;humidity
68712;BME280;55690;51.566;19.198;2023-01-29T00:03:52;102655.98;;;4.42;69.36
68712;BME280;55690;51.566;19.198;2023-01-29T00:07:58;102648.11;;;4.32;69.02
68712;BME280;55690;51.566;19.198;2023-01-29T00:12:05;102637.48;;;5.16;66.88
68712;BME280;55690;51.566;19.198;2023-01-29T00:16:11;102629.31;;;4.31;67.21
68712;BME280;55690;51.566;19.198;2023-01-29T00:20:17;102652.72;;;4.24;67.60
68712;BME280;55690;51.566;19.198;2023-01-29T00:24:23;102656.66;;;4.04;68.45
68712;BME280;55690;51.566;19.198;2023-01-29T00:28:29;102642.23;;;4.09;68.01
68712;BME280;55690;51.566;19.198;2023-01-29T00:32:36;102627.52;;;4.30;68.74
68712;BME280;55690;51.566;19.198;2023-01-29T00:36:42;102625.30;;;4.03;69.24
68712;BME280;55690;51.566;19.198;2023-01-29T00:40:48;102640.58;;;4.00;70.22
68712;BME280;55690;51.566;19.198;2023-01-29T00:45:01;102629.67;;;4.10;69.93
68712;BME280;55690;51.566;19.198;2023-01-29T00:49:03;102632.63;;;3.93;71.10
68712;BME280;55690;51.566;19.198;2023-01-29T00:53:06;102613.99;;;3.84;71.08
68712;BME280;55690;51.566;19.198;2023-01-29T00:57:13;102599.91;;;3.68;69.91
68712;BME280;55690;51.566;19.198;2023-01-29T01:01:19;102596.36;;;4.18;70.12
68712;BME280;55690;51.566;19.198;2023-01-29T01:05:32;102595.29;;;4.28;69.91
68712;BME280;55690;51.566;19.198;2023-01-29T01:09:35;102601.97;;;4.54;69.81
68712;BME280;55690;51.566;19.198;2023-01-29T01:13:48;102592.03;;;4.57;69.79
68712;BME280;55690;51.566;19.198;2023-01-29T01:17:54;102594.53;;;4.20;70.54
68712;BME280;55690;51.566;19.198;2023-01-29T01:21:55;102582.31;;;4.93;68.27
68712;BME280;55690;51.566;19.198;2023-01-29T01:25:57;102588.30;;;4.64;69.77
68712;BME280;55690;51.566;19.198;2023-01-29T01:30:03;102577.04;;;4.44;70.62
68712;BME280;55690;51.566;19.198;2023-01-29T01:34:09;102574.31;;;4.46;70.29
68712;BME280;55690;51.566;19.198;2023-01-29T01:38:14;102576.94;;;4.01;71.14
68712;BME280;55690;51.566;19.198;2023-01-29T01:42:21;102570.34;;;4.20;70.87
68712;BME280;55690;51.566;19.198;2023-01-29T01:46:28;102572.35;;;4.08;70.53
68712;BME280;55690;51.566;19.198;2023-01-29T01:50:38;102561.26;;;5.12;68.95
68712;BME280;55690;51.566;19.198;2023-01-29T01:54:43;102554.12;;;3.76;71.25
68712;BME280;55690;51.566;19.198;2023-01-29T01:58:49;102565.99;;;3.61;71.67
68712;BME280;55690;51.566;19.198;2023-01-29T02:02:53;102565.10;;;3.60;71.92
68712;BME280;55690;51.566;19.198;2023-01-29T02:07:09;102568.73;;;3.58;71.77
68712;BME280;55690;51.566;19.198;2023-01-29T02:11:24;102558.12;;;3.49;70.80
68712;BME280;55690;51.566;19.198;2023-01-29T02:15:25;102563.26;;;3.64;72.21
68712;BME280;55690;51.566;19.198;2023-01-29T02:41:00;102579.45;;;3.59;72.90
68712;BME280;55690;51.566;19.198;2023-01-29T02:44:59;102580.36;;;3.58;71.91
68712;BME280;55690;51.566;19.198;2023-01-29T02:53:19;102577.30;;;3.83;71.79
68712;BME280;55690;51.566;19.198;2023-01-29T02:57:33;102565.97;;;3.62;72.34
68712;BME280;55690;51.566;19.198;2023-01-29T03:01:47;102549.26;;;3.45;72.49
68712;BME280;55690;51.566;19.198;2023-01-29T03:10:28;102559.70;;;3.62;72.09
68712;BME280;55690;51.566;19.198;2023-01-29T03:14:29;102543.75;;;3.51;72.01
68712;BME280;55690;51.566;19.198;2023-01-29T03:18:45;102533.58;;;3.72;71.60
68712;BME280;55690;51.566;19.198;2023-01-29T03:22:56;102539.10;;;3.62;71.59
68712;BME280;55690;51.566;19.198;2023-01-29T03:27:04;102537.23;;;3.67;71.44
68712;BME280;55690;51.566;19.198;2023-01-29T03:31:20;102546.30;;;3.60;71.90
68712;BME280;55690;51.566;19.198;2023-01-29T03:35:37;102534.07;;;3.43;72.42
68712;BME280;55690;51.566;19.198;2023-01-29T03:39:41;102545.53;;;3.52;72.00
68712;BME280;55690;51.566;19.198;2023-01-29T03:43:54;102547.23;;;3.58;71.73
68712;BME280;55690;51.566;19.198;2023-01-29T03:52:21;102526.21;;;3.30;72.95
68712;BME280;55690;51.566;19.198;2023-01-29T03:56:35;102522.98;;;3.62;72.63
68712;BME280;55690;51.566;19.198;2023-01-29T04:00:42;102523.02;;;4.10;71.98
68712;BME280;55690;51.566;19.198;2023-01-29T04:04:48;102531.79;;;3.72;72.32
68712;BME280;55690;51.566;19.198;2023-01-29T04:08:58;102518.81;;;3.46;72.89
68712;BME280;55690;51.566;19.198;2023-01-29T04:13:05;102510.79;;;3.43;73.31
68712;BME280;55690;51.566;19.198;2023-01-29T04:17:17;102500.54;;;3.66;72.89
68712;BME280;55690;51.566;19.198;2023-01-29T04:21:20;102506.86;;;3.62;72.82
68712;BME280;55690;51.566;19.198;2023-01-29T04:25:25;102496.38;;;3.47;73.32
68712;BME280;55690;51.566;19.198;2023-01-29T04:29:36;102507.97;;;3.49;72.95
68712;BME280;55690;51.566;19.198;2023-01-29T04:42:14;102488.46;;;3.40;73.26
68712;BME280;55690;51.566;19.198;2023-01-29T04:46:26;102488.77;;;3.74;73.23
68712;BME280;55690;51.566;19.198;2023-01-29T04:50:38;102491.19;;;3.89;72.88
68712;BME280;55690;51.566;19.198;2023-01-29T04:54:51;102477.75;;;3.89;73.06
68712;BME280;55690;51.566;19.198;2023-01-29T04:58:58;102485.33;;;4.13;72.64
68712;BME280;55690;51.566;19.198;2023-01-29T05:03:02;102477.13;;;3.73;73.66
68712;BME280;55690;51.566;19.198;2023-01-29T05:07:12;102469.19;;;4.13;73.14
68712;BME280;55690;51.566;19.198;2023-01-29T05:11:15;102466.09;;;3.90;73.54
68712;BME280;55690;51.566;19.198;2023-01-29T05:15:22;102473.95;;;3.99;72.80
68712;BME280;55690;51.566;19.198;2023-01-29T05:19:26;102481.01;;;4.05;73.57
68712;BME280;55690;51.566;19.198;2023-01-29T05:23:27;102476.27;;;3.71;73.44
68712;BME280;55690;51.566;19.198;2023-01-29T05:27:33;102484.12;;;3.83;73.69
68712;BME280;55690;51.566;19.198;2023-01-29T05:31:46;102481.38;;;3.86;74.21
68712;BME280;55690;51.566;19.198;2023-01-29T05:35:48;102482.09;;;3.94;73.58
68712;BME280;55690;51.566;19.198;2023-01-29T05:39:50;102480.30;;;3.95;73.70
68712;BME280;55690;51.566;19.198;2023-01-29T05:43:51;102467.23;;;4.21;73.30
68712;BME280;55690;51.566;19.198;2023-01-29T05:47:57;102456.55;;;4.18;73.02
68712;BME280;55690;51.566;19.198;2023-01-29T05:51:59;102462.59;;;2.77;76.81
68712;BME280;55690;51.566;19.198;2023-01-29T05:56:02;102457.41;;;4.20;73.57
68712;BME280;55690;51.566;19.198;2023-01-29T06:00:04;102460.66;;;3.91;73.77
68712;BME280;55690;51.566;19.198;2023-01-29T06:04:06;102468.30;;;3.66;74.44
68712;BME280;55690;51.566;19.198;2023-01-29T06:08:07;102466.17;;;3.85;73.86
68712;BME280;55690;51.566;19.198;2023-01-29T06:12:09;102466.36;;;4.21;73.13
68712;BME280;55690;51.566;19.198;2023-01-29T06:16:12;102461.98;;;4.15;73.44
68712;BME280;55690;51.566;19.198;2023-01-29T06:20:13;102452.47;;;3.50;75.03
68712;BME280;55690;51.566;19.198;2023-01-29T06:24:15;102457.60;;;3.63;75.10
68712;BME280;55690;51.566;19.198;2023-01-29T06:28:16;102452.17;;;3.66;75.29
68712;BME280;55690;51.566;19.198;2023-01-29T06:32:18;102457.41;;;3.74;74.60
68712;BME280;55690;51.566;19.198;2023-01-29T06:36:19;102465.45;;;3.76;74.99
68712;BME280;55690;51.566;19.198;2023-01-29T06:40:21;102468.27;;;3.68;75.09
68712;BME280;55690;51.566;19.198;2023-01-29T06:44:22;102468.42;;;3.59;75.49
68712;BME280;55690;51.566;19.198;2023-01-29T06:48:24;102473.35;;;3.34;75.99
68712;BME280;55690;51.566;19.198;2023-01-29T06:52:26;102486.59;;;3.46;75.41
68712;BME280;55690;51.566;19.198;2023-01-29T06:56:29;102496.25;;;3.55;75.24
68712;BME280;55690;51.566;19.198;2023-01-29T07:00:30;102487.09;;;3.66;75.06
68712;BME280;55690;51.566;19.198;2023-01-29T07:04:32;102480.77;;;3.71;74.76
68712;BME280;55690;51.566;19.198;2023-01-29T07:08:36;102480.69;;;3.23;75.56
68712;BME280;55690;51.566;19.198;2023-01-29T07:12:38;102484.85;;;3.42;75.04
68712;BME280;55690;51.566;19.198;2023-01-29T07:16:39;102456.25;;;3.40;74.93
68712;BME280;55690;51.566;19.198;2023-01-29T07:20:41;102483.75;;;3.52;74.00
68712;BME280;55690;51.566;19.198;2023-01-29T07:24:43;102492.45;;;3.68;73.91
68712;BME280;55690;51.566;19.198;2023-01-29T07:28:45;102516.34;;;3.85;73.64
68712;BME280;55690;51.566;19.198;2023-01-29T07:32:46;102523.59;;;3.80;74.61
68712;BME280;55690;51.566;19.198;2023-01-29T07:36:48;102517.42;;;4.22;72.92
68712;BME280;55690;51.566;19.198;2023-01-29T07:40:51;102509.44;;;4.18;72.97
68712;BME280;55690;51.566;19.198;2023-01-29T07:44:53;102504.73;;;3.30;73.87
68712;BME280;55690;51.566;19.198;2023-01-29T07:48:54;102492.73;;;4.00;73.67
68712;BME280;55690;51.566;19.198;2023-01-29T07:52:56;102498.18;;;2.90;76.29
68712;BME280;55690;51.566;19.198;2023-01-29T07:56:57;102497.64;;;2.63;76.73
68712;BME280;55690;51.566;19.198;2023-01-29T08:00:59;102483.84;;;2.25;77.56
68712;BME280;55690;51.566;19.198;2023-01-29T08:05:00;102477.17;;;3.18;75.71
68712;BME280;55690;51.566;19.198;2023-01-29T08:09:02;102466.56;;;3.62;74.02
68712;BME280;55690;51.566;19.198;2023-01-29T08:13:04;102455.70;;;3.18;73.99
68712;BME280;55690;51.566;19.198;2023-01-29T08:17:06;102457.86;;;3.48;74.11
68712;BME280;55690;51.566;19.198;2023-01-29T08:21:08;102450.34;;;3.68;73.06
68712;BME280;55690;51.566;19.198;2023-01-29T08:25:10;102448.23;;;4.30;72.50
68712;BME280;55690;51.566;19.198;2023-01-29T08:29:11;102443.52;;;3.97;72.62
68712;BME280;55690;51.566;19.198;2023-01-29T08:33:13;102435.13;;;4.94;70.61
68712;BME280;55690;51.566;19.198;2023-01-29T08:37:14;102448.78;;;4.46;71.41
68712;BME280;55690;51.566;19.198;2023-01-29T08:41:15;102437.52;;;4.29;72.21
68712;BME280;55690;51.566;19.198;2023-01-29T08:45:17;102441.59;;;4.47;71.73
68712;BME280;55690;51.566;19.198;2023-01-29T08:49:18;102435.46;;;3.97;72.12
68712;BME280;55690;51.566;19.198;2023-01-29T08:53:20;102437.09;;;4.47;72.11
68712;BME280;55690;51.566;19.198;2023-01-29T08:57:24;102431.57;;;4.55;71.32
68712;BME280;55690;51.566;19.198;2023-01-29T09:01:26;102429.71;;;4.95;70.53
68712;BME280;55690;51.566;19.198;2023-01-29T09:05:29;102428.02;;;4.91;71.62
68712;BME280;55690;51.566;19.198;2023-01-29T09:09:35;102423.87;;;5.15;71.08
68712;BME280;55690;51.566;19.198;2023-01-29T09:13:41;102431.09;;;5.13;70.90
68712;BME280;55690;51.566;19.198;2023-01-29T09:17:47;102434.67;;;4.35;71.68
68712;BME280;55690;51.566;19.198;2023-01-29T09:21:54;102427.25;;;4.05;71.87
68712;BME280;55690;51.566;19.198;2023-01-29T09:26:00;102414.52;;;4.93;71.62
68712;BME280;55690;51.566;19.198;2023-01-29T09:30:07;102402.58;;;4.67;72.48
68712;BME280;55690;51.566;19.198;2023-01-29T09:34:12;102396.32;;;4.67;72.28
68712;BME280;55690;51.566;19.198;2023-01-29T09:38:19;102393.40;;;5.13;71.33
68712;BME280;55690;51.566;19.198;2023-01-29T09:42:29;102387.08;;;5.48;70.61
68712;BME280;55690;51.566;19.198;2023-01-29T09:46:42;102375.51;;;5.11;71.49
68712;BME280;55690;51.566;19.198;2023-01-29T09:50:47;102363.77;;;5.47;70.71
68712;BME280;55690;51.566;19.198;2023-01-29T09:55:06;102368.13;;;5.19;70.70
68712;BME280;55690;51.566;19.198;2023-01-29T09:59:11;102361.98;;;5.46;70.76
68712;BME280;55690;51.566;19.198;2023-01-29T10:11:51;102355.66;;;5.15;71.53
68712;BME280;55690;51.566;19.198;2023-01-29T10:32:50;102344.20;;;5.07;73.13
68712;BME280;55690;51.566;19.198;2023-01-29T10:36:53;102337.39;;;5.26;73.64
68712;BME280;55690;51.566;19.198;2023-01-29T11:02:15;102321.82;;;4.32;79.07
68712;BME280;55690;51.566;19.198;2023-01-29T11:06:23;102319.05;;;4.72;78.52
68712;BME280;55690;51.566;19.198;2023-01-29T11:10:30;102308.96;;;4.80;77.75
68712;BME280;55690;51.566;19.198;2023-01-29T11:14:42;102289.81;;;4.92;77.69
68712;BME280;55690;51.566;19.198;2023-01-29T11:18:57;102288.41;;;5.12;76.99
68712;BME280;55690;51.566;19.198;2023-01-29T11:22:59;102267.35;;;4.93;76.27
68712;BME280;55690;51.566;19.198;2023-01-29T11:27:00;102277.08;;;4.65;77.81
68712;BME280;55690;51.566;19.198;2023-01-29T11:35:23;102268.93;;;5.02;76.89
68712;BME280;55690;51.566;19.198;2023-01-29T11:39:27;102266.28;;;5.00;77.38
68712;BME280;55690;51.566;19.198;2023-01-29T11:43:29;102242.93;;;5.01;77.49
68712;BME280;55690;51.566;19.198;2023-01-29T11:47:31;102245.09;;;4.53;78.71
68712;BME280;55690;51.566;19.198;2023-01-29T11:51:33;102245.13;;;4.85;78.33
68712;BME280;55690;51.566;19.198;2023-01-29T11:55:36;102234.70;;;4.38;78.83
68712;BME280;55690;51.566;19.198;2023-01-29T11:59:41;102233.84;;;4.73;78.24
68712;BME280;55690;51.566;19.198;2023-01-29T12:03:50;102236.14;;;4.52;78.54
68712;BME280;55690;51.566;19.198;2023-01-29T12:07:56;102212.30;;;4.73;77.57
68712;BME280;55690;51.566;19.198;2023-01-29T12:12:26;102207.16;;;4.63;77.70
68712;BME280;55690;51.566;19.198;2023-01-29T12:20:33;102191.98;;;4.93;77.61
68712;BME280;55690;51.566;19.198;2023-01-29T12:33:13;102181.34;;;4.89;78.02
68712;BME280;55690;51.566;19.198;2023-01-29T12:37:24;102181.59;;;5.12;78.71
68712;BME280;55690;51.566;19.198;2023-01-29T12:45:42;102175.33;;;5.12;79.52
68712;BME280;55690;51.566;19.198;2023-01-29T12:49:49;102170.49;;;5.23;78.49
68712;BME280;55690;51.566;19.198;2023-01-29T12:53:58;102157.69;;;5.31;78.70
68712;BME280;55690;51.566;19.198;2023-01-29T12:58:49;102160.45;;;5.59;77.87
68712;BME280;55690;51.566;19.198;2023-01-29T13:03:28;102151.60;;;5.24;78.66
68712;BME280;55690;51.566;19.198;2023-01-29T13:07:37;102146.72;;;5.08;79.21
68712;BME280;55690;51.566;19.198;2023-01-29T13:11:47;102140.34;;;4.79;80.14
68712;BME280;55690;51.566;19.198;2023-01-29T13:15:51;102127.77;;;4.80;79.70
68712;BME280;55690;51.566;19.198;2023-01-29T13:19:57;102123.59;;;5.00;79.41
68712;BME280;55690;51.566;19.198;2023-01-29T13:24:03;102115.08;;;5.16;79.61
68712;BME280;55690;51.566;19.198;2023-01-29T13:28:15;102128.73;;;4.77;80.85
68712;BME280;55690;51.566;19.198;2023-01-29T13:32:27;102119.85;;;5.35;78.85
68712;BME280;55690;51.566;19.198;2023-01-29T13:36:29;102132.57;;;5.30;79.06
68712;BME280;55690;51.566;19.198;2023-01-29T13:40:32;102123.88;;;5.21;78.65
68712;BME280;55690;51.566;19.198;2023-01-29T13:44:38;102125.41;;;5.29;78.33
68712;BME280;55690;51.566;19.198;2023-01-29T13:48:43;102116.23;;;5.07;78.42
68712;BME280;55690;51.566;19.198;2023-01-29T13:52:56;102116.14;;;5.10;78.54
68712;BME280;55690;51.566;19.198;2023-01-29T13:56:59;102113.59;;;4.75;79.05
68712;BME280;55690;51.566;19.198;2023-01-29T14:01:01;102123.31;;;4.79;79.57
68712;BME280;55690;51.566;19.198;2023-01-29T14:13:33;102136.23;;;5.28;77.98
68712;BME280;55690;51.566;19.198;2023-01-29T14:17:37;102140.58;;;4.72;79.30
68712;BME280;55690;51.566;19.198;2023-01-29T14:21:40;102127.13;;;4.72;78.77
68712;BME280;55690;51.566;19.198;2023-01-29T14:25:41;102132.43;;;5.06;78.61
68712;BME280;55690;51.566;19.198;2023-01-29T14:29:43;102122.67;;;5.01;78.26
68712;BME280;55690;51.566;19.198;2023-01-29T14:33:44;102142.87;;;4.85;78.93
68712;BME280;55690;51.566;19.198;2023-01-29T14:37:49;102120.95;;;4.68;78.78
68712;BME280;55690;51.566;19.198;2023-01-29T14:41:52;102128.73;;;4.77;79.23
68712;BME280;55690;51.566;19.198;2023-01-29T14:54:27;102108.55;;;4.93;78.21
68712;BME280;55690;51.566;19.198;2023-01-29T15:02:49;102103.69;;;5.06;78.48
68712;BME280;55690;51.566;19.198;2023-01-29T15:19:47;102096.77;;;5.27;79.88
68712;BME280;55690;51.566;19.198;2023-01-29T15:24:03;102090.41;;;5.29;80.00
68712;BME280;55690;51.566;19.198;2023-01-29T15:28:01;102111.90;;;5.31;79.82
68712;BME280;55690;51.566;19.198;2023-01-29T15:32:16;102112.13;;;5.23;79.71
68712;BME280;55690;51.566;19.198;2023-01-29T15:36:29;102106.32;;;4.77;82.43
68712;BME280;55690;51.566;19.198;2023-01-29T15:40:33;102100.27;;;4.70;82.66
68712;BME280;55690;51.566;19.198;2023-01-29T15:44:36;102109.52;;;4.91;82.54
68712;BME280;55690;51.566;19.198;2023-01-29T15:48:43;102106.66;;;5.26;81.95
68712;BME280;55690;51.566;19.198;2023-01-29T15:52:48;102102.41;;;4.88;83.28
68712;BME280;55690;51.566;19.198;2023-01-29T15:56:52;102099.88;;;4.82;83.25
68712;BME280;55690;51.566;19.198;2023-01-29T16:00:55;102095.34;;;4.84;83.00
68712;BME280;55690;51.566;19.198;2023-01-29T16:04:58;102089.03;;;5.16;82.74
68712;BME280;55690;51.566;19.198;2023-01-29T16:09:00;102081.09;;;5.12;82.20
68712;BME280;55690;51.566;19.198;2023-01-29T16:13:02;102075.13;;;5.30;82.10
68712;BME280;55690;51.566;19.198;2023-01-29T16:17:31;102072.51;;;5.56;81.02
68712;BME280;55690;51.566;19.198;2023-01-29T16:21:28;102070.77;;;4.96;82.58
68712;BME280;55690;51.566;19.198;2023-01-29T16:25:31;102081.01;;;4.53;84.38
68712;BME280;55690;51.566;19.198;2023-01-29T16:29:34;102093.66;;;4.80;83.99
68712;BME280;55690;51.566;19.198;2023-01-29T16:33:37;102080.96;;;4.85;83.42
68712;BME280;55690;51.566;19.198;2023-01-29T16:37:41;102079.62;;;4.71;84.08
68712;BME280;55690;51.566;19.198;2023-01-29T16:42:05;102077.23;;;4.60;84.52
68712;BME280;55690;51.566;19.198;2023-01-29T16:46:03;102058.69;;;4.49;84.93
68712;BME280;55690;51.566;19.198;2023-01-29T16:54:20;102055.95;;;4.82;84.64
68712;BME280;55690;51.566;19.198;2023-01-29T16:58:25;102055.20;;;4.46;85.97
68712;BME280;55690;51.566;19.198;2023-01-29T17:02:32;102032.24;;;5.52;82.64
68712;BME280;55690;51.566;19.198;2023-01-29T17:06:37;102023.16;;;6.33;80.28
68712;BME280;55690;51.566;19.198;2023-01-29T17:10:46;102024.13;;;6.56;79.43
68712;BME280;55690;51.566;19.198;2023-01-29T17:19:00;102037.45;;;4.71;85.33
68712;BME280;55690;51.566;19.198;2023-01-29T17:23:02;102040.05;;;4.74;85.58
68712;BME280;55690;51.566;19.198;2023-01-29T17:27:03;102028.47;;;4.40;87.16
68712;BME280;55690;51.566;19.198;2023-01-29T17:31:06;102032.86;;;4.75;85.61
68712;BME280;55690;51.566;19.198;2023-01-29T17:35:11;102019.15;;;4.82;85.75
68712;BME280;55690;51.566;19.198;2023-01-29T17:39:20;102015.08;;;4.98;84.78
68712;BME280;55690;51.566;19.198;2023-01-29T17:43:22;102020.03;;;4.83;85.25
68712;BME280;55690;51.566;19.198;2023-01-29T17:47:24;102014.24;;;4.67;86.24
68712;BME280;55690;51.566;19.198;2023-01-29T17:51:25;101999.16;;;4.91;85.39
68712;BME280;55690;51.566;19.198;2023-01-29T17:55:26;101990.03;;;4.67;86.28
68712;BME280;55690;51.566;19.198;2023-01-29T17:59:30;101984.48;;;4.73;86.51
68712;BME280;55690;51.566;19.198;2023-01-29T18:03:32;101986.64;;;4.60;87.06
68712;BME280;55690;51.566;19.198;2023-01-29T18:07:35;101970.92;;;4.76;86.97
68712;BME280;55690;51.566;19.198;2023-01-29T18:11:37;101954.19;;;4.94;85.91
68712;BME280;55690;51.566;19.198;2023-01-29T18:15:38;101950.20;;;5.08;85.33
68712;BME280;55690;51.566;19.198;2023-01-29T18:19:40;101949.36;;;5.06;85.07
68712;BME280;55690;51.566;19.198;2023-01-29T18:23:42;101949.92;;;4.87;85.89
68712;BME280;55690;51.566;19.198;2023-01-29T18:27:45;101939.27;;;5.12;85.75
68712;BME280;55690;51.566;19.198;2023-01-29T18:31:49;101939.52;;;5.05;85.88
68712;BME280;55690;51.566;19.198;2023-01-29T18:35:50;101943.73;;;5.40;84.83
68712;BME280;55690;51.566;19.198;2023-01-29T18:39:54;101937.58;;;4.80;86.87
68712;BME280;55690;51.566;19.198;2023-01-29T18:43:56;101931.01;;;5.18;85.83
68712;BME280;55690;51.566;19.198;2023-01-29T18:48:01;101933.63;;;4.92;86.66
68712;BME280;55690;51.566;19.198;2023-01-29T18:52:07;101920.23;;;5.18;86.29
68712;BME280;55690;51.566;19.198;2023-01-29T18:56:14;101915.25;;;5.06;86.73
68712;BME280;55690;51.566;19.198;2023-01-29T19:00:20;101911.91;;;4.98;86.80
68712;BME280;55690;51.566;19.198;2023-01-29T19:04:26;101914.41;;;5.04;86.44
68712;BME280;55690;51.566;19.198;2023-01-29T19:08:33;101924.88;;;4.85;87.78
68712;BME280;55690;51.566;19.198;2023-01-29T19:12:38;101911.03;;;4.97;87.58
68712;BME280;55690;51.566;19.198;2023-01-29T19:16:45;101913.77;;;4.68;88.55
68712;BME280;55690;51.566;19.198;2023-01-29T19:20:51;101901.05;;;5.01;87.48
68712;BME280;55690;51.566;19.198;2023-01-29T19:24:57;101899.49;;;5.20;87.01
68712;BME280;55690;51.566;19.198;2023-01-29T19:29:03;101892.63;;;5.12;87.39
68712;BME280;55690;51.566;19.198;2023-01-29T19:33:09;101889.30;;;5.30;86.73
68712;BME280;55690;51.566;19.198;2023-01-29T19:37:16;101884.84;;;5.29;87.05
68712;BME280;55690;51.566;19.198;2023-01-29T19:41:22;101889.72;;;5.69;85.76
68712;BME280;55690;51.566;19.198;2023-01-29T19:45:28;101881.63;;;5.44;86.07
68712;BME280;55690;51.566;19.198;2023-01-29T19:49:34;101879.20;;;5.63;85.73
68712;BME280;55690;51.566;19.198;2023-01-29T19:53:41;101876.30;;;5.43;86.47
68712;BME280;55690;51.566;19.198;2023-01-29T19:57:47;101867.08;;;5.50;85.86
68712;BME280;55690;51.566;19.198;2023-01-29T20:01:53;101865.41;;;5.71;85.88
68712;BME280;55690;51.566;19.198;2023-01-29T20:06:04;101851.33;;;5.87;85.35
68712;BME280;55690;51.566;19.198;2023-01-29T20:10:07;101849.60;;;5.61;85.89
68712;BME280;55690;51.566;19.198;2023-01-29T20:14:16;101851.41;;;5.61;85.89
68712;BME280;55690;51.566;19.198;2023-01-29T20:18:18;101839.86;;;5.57;86.36
68712;BME280;55690;51.566;19.198;2023-01-29T20:22:25;101845.63;;;5.47;87.00
68712;BME280;55690;51.566;19.198;2023-01-29T20:26:30;101846.24;;;5.55;86.61
68712;BME280;55690;51.566;19.198;2023-01-29T20:30:37;101832.60;;;5.59;86.52
68712;BME280;55690;51.566;19.198;2023-01-29T20:34:42;101819.55;;;5.72;86.03
68712;BME280;55690;51.566;19.198;2023-01-29T20:38:48;101817.25;;;5.37;87.39
68712;BME280;55690;51.566;19.198;2023-01-29T20:42:54;101804.77;;;5.34;87.26
68712;BME280;55690;51.566;19.198;2023-01-29T20:47:01;101808.61;;;5.27;87.58
68712;BME280;55690;51.566;19.198;2023-01-29T20:51:11;101806.05;;;5.49;87.46
68712;BME280;55690;51.566;19.198;2023-01-29T20:55:15;101805.17;;;5.48;87.61
68712;BME280;55690;51.566;19.198;2023-01-29T20:59:19;101809.01;;;5.41;87.65
68712;BME280;55690;51.566;19.198;2023-01-29T21:03:25;101796.22;;;4.96;89.44
68712;BME280;55690;51.566;19.198;2023-01-29T21:07:32;101795.14;;;5.27;88.66
68712;BME280;55690;51.566;19.198;2023-01-29T21:11:38;101791.09;;;5.40;87.23
68712;BME280;55690;51.566;19.198;2023-01-29T21:15:44;101786.07;;;5.05;88.93
68712;BME280;55690;51.566;19.198;2023-01-29T21:19:50;101781.47;;;5.33;88.34
68712;BME280;55690;51.566;19.198;2023-01-29T21:23:56;101782.62;;;5.26;87.60
68712;BME280;55690;51.566;19.198;2023-01-29T21:28:04;101771.80;;;5.52;86.69
68712;BME280;55690;51.566;19.198;2023-01-29T21:32:09;101766.08;;;5.37;87.39
68712;BME280;55690;51.566;19.198;2023-01-29T21:36:15;101766.45;;;5.51;87.19
68712;BME280;55690;51.566;19.198;2023-01-29T21:40:21;101763.49;;;5.33;87.64
68712;BME280;55690;51.566;19.198;2023-01-29T21:44:27;101742.39;;;5.46;87.44
68712;BME280;55690;51.566;19.198;2023-01-29T21:48:33;101750.81;;;5.12;88.07
68712;BME280;55690;51.566;19.198;2023-01-29T21:52:40;101747.66;;;5.49;87.38
68712;BME280;55690;51.566;19.198;2023-01-29T21:56:46;101732.20;;;5.54;86.87
68712;BME280;55690;51.566;19.198;2023-01-29T22:00:52;101731.98;;;5.60;86.85
68712;BME280;55690;51.566;19.198;2023-01-29T22:04:58;101731.21;;;5.57;86.98
68712;BME280;55690;51.566;19.198;2023-01-29T22:09:04;101726.70;;;5.57;86.63
68712;BME280;55690;51.566;19.198;2023-01-29T22:13:10;101717.52;;;5.15;87.63
68712;BME280;55690;51.566;19.198;2023-01-29T22:17:17;101709.63;;;5.33;86.56
68712;BME280;55690;51.566;19.198;2023-01-29T22:21:23;101710.67;;;5.29;86.73
68712;BME280;55690;51.566;19.198;2023-01-29T22:25:30;101708.26;;;5.22;86.92
68712;BME280;55690;51.566;19.198;2023-01-29T22:29:35;101691.20;;;4.98;86.68
68712;BME280;55690;51.566;19.198;2023-01-29T22:33:42;101681.73;;;4.86;87.80
68712;BME280;55690;51.566;19.198;2023-01-29T22:37:48;101673.91;;;5.28;86.99
68712;BME280;55690;51.566;19.198;2023-01-29T22:41:54;101663.07;;;5.07;86.92
68712;BME280;55690;51.566;19.198;2023-01-29T22:46:00;101658.39;;;4.87;87.48
68712;BME280;55690;51.566;19.198;2023-01-29T22:50:07;101642.20;;;4.88;86.72
68712;BME280;55690;51.566;19.198;2023-01-29T22:54:13;101632.74;;;4.77;87.25
68712;BME280;55690;51.566;19.198;2023-01-29T22:58:19;101624.34;;;4.86;86.79
68712;BME280;55690;51.566;19.198;2023-01-29T23:02:25;101613.06;;;4.76;86.24
68712;BME280;55690;51.566;19.198;2023-01-29T23:06:31;101601.52;;;4.73;85.92
68712;BME280;55690;51.566;19.198;2023-01-29T23:10:37;101582.71;;;4.96;85.17
68712;BME280;55690;51.566;19.198;2023-01-29T23:14:43;101589.58;;;4.80;85.04
68712;BME280;55690;51.566;19.198;2023-01-29T23:18:52;101574.43;;;4.77;85.12
68712;BME280;55690;51.566;19.198;2023-01-29T23:22:57;101562.88;;;4.98;85.27
68712;BME280;55690;51.566;19.198;2023-01-29T23:27:02;101561.25;;;5.18;84.48
68712;BME280;55690;51.566;19.198;2023-01-29T23:31:15;101560.72;;;5.08;84.46
68712;BME280;55690;51.566;19.198;2023-01-29T23:35:17;101548.16;;;5.30;84.14
68712;BME280;55690;51.566;19.198;2023-01-29T23:39:21;101549.27;;;5.25;83.93
68712;BME280;55690;51.566;19.198;2023-01-29T23:43:28;101542.25;;;5.21;83.61
68712;BME280;55690;51.566;19.198;2023-01-29T23:47:33;101531.09;;;5.53;83.09
68712;BME280;55690;51.566;19.198;2023-01-29T23:51:39;101526.38;;;5.37;83.12
68712;BME280;55690;51.566;19.198;2023-01-29T23:55:55;101517.66;;;5.30;83.59
68712;BME280;55690;51.566;19.198;2023-01-29T23:59:57;101513.24;;;5.51;82.97
